Time;durP1;ratioP1;P1;durP2;ratioP2;P2;SDS_P1;SDS_P2;PMS_P1;PMS_P2;Temp;Humidity;BMP_temperature;BMP_pressure;BME280_temperature;BME280_humidity;BME280_pressure;Samples;Min_cycle;Max_cycle;Signal;HPM_P1;HPM_P2
2023/05/21 04:50:48;;;;;;;38.38;21.90;;;;;;;12.06;97.66;96189.59;2099631;27;20554;-56
2023/05/21 04:51:50;;;;;;;37.80;22.35;;;;;;;12.13;97.27;96192.69;2098977;28;20192;-56
2023/05/21 05:57:30;;;;;;;36.40;21.35;;;;;;;13.90;89.99;96167.03;2089225;28;20574;-56
2023/05/21 05:59:53;;;;;;;36.25;21.15;;;;;;;14.04;89.06;96177.47;2099099;27;20565;-56
2023/05/21 06:02:16;;;;;;;36.35;23.65;;;;;;;14.39;88.18;96193.63;2101643;27;20538;-55
2023/05/21 06:04:45;;;;;;;32.95;22.00;;;;;;;14.58;86.94;96190.59;2083424;28;20564;-55
2023/05/21 06:05:47;;;;;;;33.10;21.20;;;;;;;14.70;86.99;96184.50;2081057;28;20196;-56
2023/05/21 06:08:09;;;;;;;34.00;24.00;;;;;;;14.92;85.47;96202.28;2082689;28;20566;-56
2023/05/21 06:09:10;;;;;;;30.83;21.77;;;;;;;14.98;84.56;96198.38;2079746;28;20213;-56
2023/05/21 06:10:12;;;;;;;35.33;22.88;;;;;;;15.13;84.43;96202.56;2079045;28;20200;-56
2023/05/21 06:11:17;;;;;;;32.83;21.13;;;;;;;15.24;84.39;96200.97;2078031;28;20644;-56
2023/05/21 06:12:19;;;;;;;34.30;20.98;;;;;;;15.16;84.44;96207.63;2078890;28;20205;-56
2023/05/21 06:13:21;;;;;;;36.65;22.65;;;;;;;15.25;84.59;96202.66;2077742;28;20212;-56
2023/05/21 06:15:45;;;;;;;33.70;20.65;;;;;;;15.22;84.52;96197.59;2109034;27;20566;-56
2023/05/21 06:16:46;;;;;;;38.08;21.25;;;;;;;15.38;83.50;96200.84;2106890;28;20263;-56
2023/05/21 06:17:48;;;;;;;36.42;22.48;;;;;;;15.40;84.19;96204.22;2107160;28;20858;-56
2023/05/21 06:18:49;;;;;;;30.15;21.27;;;;;;;15.45;83.92;96202.09;2105944;28;20211;-56
2023/05/21 06:19:51;;;;;;;42.70;22.45;;;;;;;15.52;83.90;96200.69;2107180;28;20191;-56
2023/05/21 06:20:52;;;;;;;34.65;21.23;;;;;;;15.70;83.66;96200.31;2101214;28;20298;-55
2023/05/21 06:21:54;;;;;;;32.58;22.27;;;;;;;15.82;83.30;96206.50;2102193;28;20252;-56
2023/05/21 06:22:55;;;;;;;41.38;21.33;;;;;;;15.93;82.61;96203.09;2106114;28;20195;-55
2023/05/21 06:23:57;;;;;;;30.25;21.48;;;;;;;16.10;81.78;96207.97;2102580;28;20218;-56
2023/05/21 06:24:58;;;;;;;28.02;18.75;;;;;;;15.89;82.43;96199.03;2103416;28;20191;-56
2023/05/21 06:26:00;;;;;;;30.27;19.73;;;;;;;15.93;82.83;96198.66;2108360;28;20198;-56
2023/05/21 06:27:02;;;;;;;28.48;19.40;;;;;;;16.28;81.96;96197.03;2107410;28;20199;-56
2023/05/21 06:28:04;;;;;;;32.08;19.35;;;;;;;16.55;81.26;96198.53;2106282;28;20195;-55
2023/05/21 06:29:05;;;;;;;35.28;20.75;;;;;;;16.63;81.30;96198.78;2106475;28;20226;-56
2023/05/21 06:30:07;;;;;;;31.20;19.55;;;;;;;16.79;80.67;96204.56;2107227;28;20273;-56
2023/05/21 06:31:10;;;;;;;29.52;17.83;;;;;;;16.87;80.04;96198.69;2095747;28;20192;-56
2023/05/21 06:32:12;;;;;;;23.92;17.50;;;;;;;17.02;79.39;96201.16;2097921;28;20225;-56
2023/05/21 06:33:13;;;;;;;26.30;17.80;;;;;;;17.09;79.25;96192.63;2099389;28;20223;-56
2023/05/21 06:34:15;;;;;;;27.75;17.98;;;;;;;17.17;77.49;96201.75;2097788;28;20218;-56
2023/05/21 06:35:16;;;;;;;23.73;16.52;;;;;;;17.14;78.14;96194.88;2107224;28;20686;-56
2023/05/21 06:36:18;;;;;;;26.92;17.88;;;;;;;17.38;77.89;96196.56;2105925;28;20203;-56
2023/05/21 06:37:22;;;;;;;22.48;16.25;;;;;;;17.53;76.97;96199.78;2107192;28;20203;-56
2023/05/21 06:38:26;;;;;;;23.02;16.05;;;;;;;17.67;77.32;96193.41;2102590;28;20196;-56
2023/05/21 06:39:28;;;;;;;25.33;17.15;;;;;;;17.76;77.44;96182.09;2103534;28;20202;-56
2023/05/21 06:40:29;;;;;;;24.40;17.30;;;;;;;17.63;76.98;96182.25;2103062;28;20191;-56
2023/05/21 06:41:31;;;;;;;25.05;16.35;;;;;;;17.65;77.64;96190.03;2104912;28;20199;-56
2023/05/21 06:42:32;;;;;;;22.33;15.50;;;;;;;17.97;76.54;96192.75;2105751;28;20230;-56
2023/05/21 06:43:34;;;;;;;23.52;15.02;;;;;;;18.10;75.74;96182.00;2106518;28;20252;-56
2023/05/21 06:44:35;;;;;;;21.23;15.10;;;;;;;18.09;75.50;96194.41;2106449;28;20206;-56
2023/05/21 06:45:37;;;;;;;21.88;14.75;;;;;;;18.28;74.45;96192.84;2102884;28;20747;-56
2023/05/21 06:46:39;;;;;;;23.67;16.10;;;;;;;18.37;74.47;96180.69;2103470;28;20760;-56
2023/05/21 06:47:40;;;;;;;18.27;14.23;;;;;;;18.16;74.25;96194.72;2106662;28;20554;-56
2023/05/21 06:48:43;;;;;;;22.85;15.80;;;;;;;18.23;74.51;96185.34;2105801;28;20234;-56
2023/05/21 06:49:45;;;;;;;20.77;13.85;;;;;;;18.50;74.11;96194.56;2106545;28;20202;-56
2023/05/21 06:50:46;;;;;;;24.65;15.40;;;;;;;18.63;73.42;96193.50;2106449;28;20191;-56
2023/05/21 06:51:47;;;;;;;19.65;14.05;;;;;;;18.88;72.94;96197.56;2102834;28;20217;-56
2023/05/21 06:52:49;;;;;;;19.08;14.13;;;;;;;19.14;71.94;96192.69;2103560;28;20287;-56
2023/05/21 06:53:51;;;;;;;18.67;13.65;;;;;;;18.97;71.53;96199.47;2105840;28;20271;-56
2023/05/21 06:54:53;;;;;;;19.10;14.00;;;;;;;18.04;73.51;96204.50;2106896;28;20219;-56
2023/05/21 06:55:54;;;;;;;27.73;15.98;;;;;;;18.22;73.97;96193.34;2106753;28;20202;-56
2023/05/21 06:56:56;;;;;;;21.58;14.25;;;;;;;18.57;72.10;96190.41;2106028;28;20199;-56
2023/05/21 06:57:57;;;;;;;21.77;13.38;;;;;;;18.92;71.29;96196.38;2106687;28;20196;-56
2023/05/21 06:58:59;;;;;;;18.77;13.80;;;;;;;19.07;71.15;96197.69;2098388;28;20714;-56
2023/05/21 07:00:00;;;;;;;23.15;14.05;;;;;;;18.32;71.02;96201.38;2100171;28;20278;-56
2023/05/21 07:01:02;;;;;;;19.35;13.32;;;;;;;18.20;72.20;96196.13;2108213;28;20227;-55
2023/05/21 07:02:04;;;;;;;19.55;12.60;;;;;;;17.78;72.40;96201.31;2109343;28;20659;-56
2023/05/21 07:03:06;;;;;;;23.77;14.75;;;;;;;17.48;74.28;96199.31;2105010;28;20600;-56
2023/05/21 07:04:08;;;;;;;19.20;13.23;;;;;;;17.81;73.66;96187.84;2102081;28;20219;-56
2023/05/21 07:05:09;;;;;;;19.77;13.75;;;;;;;18.40;72.21;96197.13;2105371;28;20387;-56
2023/05/21 07:06:11;;;;;;;20.67;14.27;;;;;;;18.77;71.80;96196.66;2106192;28;20671;-56
2023/05/21 07:07:13;;;;;;;17.88;12.57;;;;;;;19.14;70.80;96197.16;2102902;28;20199;-56
2023/05/21 07:08:14;;;;;;;22.50;13.00;;;;;;;19.12;69.00;96188.50;2098063;28;20218;-56
2023/05/21 07:09:17;;;;;;;18.90;13.45;;;;;;;19.24;69.11;96201.53;2096976;28;20216;-56
2023/05/21 07:10:18;;;;;;;17.70;13.50;;;;;;;19.51;68.79;96196.59;2105461;28;20286;-56
2023/05/21 07:11:20;;;;;;;21.15;14.15;;;;;;;19.36;68.69;96190.84;2107369;28;20282;-56
2023/05/21 07:12:21;;;;;;;24.17;15.07;;;;;;;18.80;69.18;96192.09;2107832;28;20639;-56
2023/05/21 07:13:23;;;;;;;21.42;13.25;;;;;;;18.64;70.52;96195.19;2101960;28;20910;-57
2023/05/21 07:14:25;;;;;;;22.15;12.32;;;;;;;18.47;71.85;96200.09;2103629;28;20252;-56
2023/05/21 07:15:26;;;;;;;21.55;12.95;;;;;;;18.92;70.53;96189.25;2104867;28;20599;-56
2023/05/21 07:16:28;;;;;;;29.13;15.25;;;;;;;19.11;68.90;96190.34;2105821;28;20195;-56
2023/05/21 07:17:29;;;;;;;19.85;13.13;;;;;;;18.53;70.33;96180.25;2102435;28;20557;-56
2023/05/21 07:18:31;;;;;;;20.35;13.10;;;;;;;18.43;71.56;96191.56;2104000;28;20232;-56
2023/05/21 07:19:33;;;;;;;24.05;14.60;;;;;;;18.22;71.61;96188.06;2103546;28;20870;-56
2023/05/21 07:20:34;;;;;;;20.98;14.35;;;;;;;18.51;70.88;96195.38;2102291;28;20207;-56
2023/05/21 07:21:36;;;;;;;23.88;15.02;;;;;;;18.59;70.34;96192.94;2103170;28;20249;-56
2023/05/21 07:22:38;;;;;;;20.38;14.48;;;;;;;18.56;70.84;96193.19;2106399;28;20205;-57
2023/05/21 07:23:39;;;;;;;23.83;14.35;;;;;;;19.03;69.89;96193.66;2106499;28;20842;-57
2023/05/21 07:24:41;;;;;;;19.38;14.38;;;;;;;19.08;69.59;96201.16;2105399;28;20591;-57
2023/05/21 07:25:42;;;;;;;23.98;16.20;;;;;;;19.36;69.37;96186.41;2102261;28;20243;-58
2023/05/21 07:26:44;;;;;;;26.92;14.93;;;;;;;19.70;68.22;96190.50;2099353;28;20227;-59
2023/05/21 07:27:46;;;;;;;21.73;15.07;;;;;;;19.60;68.44;96198.44;2097172;28;20283;-59
2023/05/21 07:28:47;;;;;;;22.70;14.10;;;;;;;19.71;68.19;96197.50;2097167;28;20220;-58
2023/05/21 07:29:49;;;;;;;28.73;18.13;;;;;;;19.96;67.42;96197.97;2100049;28;20192;-59
2023/05/21 07:30:50;;;;;;;33.25;17.63;;;;;;;20.21;66.61;96202.75;2100693;28;20230;-60
2023/05/21 07:31:51;;;;;;;25.58;14.45;;;;;;;20.32;65.77;96198.28;2102239;28;20192;-59
2023/05/21 07:32:53;;;;;;;27.77;16.80;;;;;;;20.65;66.28;96196.97;2100876;28;20203;-59
2023/05/21 07:33:54;;;;;;;15.57;11.82;;;;;;;20.54;66.40;96175.91;2100278;28;20273;-59
2023/05/21 07:35:00;;;;;;;35.97;14.00;;;;;;;20.85;65.63;96203.13;2100674;28;20245;-60
2023/05/21 07:36:02;;;;;;;19.85;11.00;;;;;;;20.74;64.63;96197.16;2100151;28;20225;-59
2023/05/21 07:37:04;;;;;;;24.65;13.18;;;;;;;20.96;64.58;96193.31;2100614;28;20553;-59
2023/05/21 07:38:06;;;;;;;18.83;11.82;;;;;;;19.92;65.82;96183.31;2101088;28;20558;-59
2023/05/21 07:39:07;;;;;;;16.23;12.23;;;;;;;20.21;65.46;96196.59;2100097;28;20234;-59
2023/05/21 07:40:09;;;;;;;21.60;13.70;;;;;;;20.30;66.66;96189.63;2100373;28;20609;-60
2023/05/21 07:41:11;;;;;;;23.88;14.10;;;;;;;20.72;66.86;96197.25;2100278;28;20231;-59
2023/05/21 07:42:15;;;;;;;21.00;13.57;;;;;;;20.86;64.99;96199.47;2096493;28;20199;-60
2023/05/21 07:43:23;;;;;;;22.25;13.13;;;;;;;20.79;65.08;96194.91;2097632;28;20203;-59
2023/05/21 07:44:24;;;;;;;18.42;12.38;;;;;;;20.91;64.32;96198.22;2092416;28;20247;-59
2023/05/21 07:45:26;;;;;;;17.70;11.60;;;;;;;20.27;65.18;96192.56;2092154;28;20265;-59
2023/05/21 07:46:27;;;;;;;18.42;12.60;;;;;;;19.67;66.10;96194.28;2097164;28;20188;-59
2023/05/21 07:47:29;;;;;;;19.42;14.30;;;;;;;20.33;65.81;96194.66;2098377;28;20203;-59
2023/05/21 07:48:30;;;;;;;16.35;12.15;;;;;;;20.83;63.65;96197.09;2096236;28;20203;-60
2023/05/21 07:49:35;;;;;;;18.88;13.02;;;;;;;21.26;61.97;96196.72;2100284;28;20195;-60
2023/05/21 07:50:37;;;;;;;18.23;11.75;;;;;;;20.52;62.46;96201.75;2099835;28;20751;-59
2023/05/21 07:51:39;;;;;;;15.68;12.10;;;;;;;19.61;64.66;96197.47;2096976;28;20222;-59
2023/05/21 07:52:40;;;;;;;18.45;12.88;;;;;;;19.85;64.47;96197.13;2097994;28;20325;-59
2023/05/21 07:53:42;;;;;;;19.73;12.38;;;;;;;19.31;66.37;96199.19;2099743;28;20652;-61
2023/05/21 07:54:43;;;;;;;22.17;13.82;;;;;;;19.13;68.05;96192.84;2097565;28;20207;-59
2023/05/21 07:55:46;;;;;;;19.23;14.38;;;;;;;19.68;67.49;96193.31;2096994;28;20223;-59
2023/05/21 07:56:48;;;;;;;20.90;14.13;;;;;;;19.95;67.38;96194.50;2091652;28;20192;-59
2023/05/21 07:57:51;;;;;;;19.08;13.70;;;;;;;20.53;66.60;96196.31;2092064;28;20196;-59
2023/05/21 07:58:52;;;;;;;18.30;12.88;;;;;;;21.00;64.51;96186.72;2100670;28;20226;-59
2023/05/21 07:59:55;;;;;;;17.73;12.15;;;;;;;21.31;63.05;96192.63;2100297;28;20195;-59
2023/05/21 08:00:57;;;;;;;21.88;11.65;;;;;;;21.63;63.02;96191.38;2100361;28;20324;-59
2023/05/21 08:01:58;;;;;;;17.50;11.25;;;;;;;21.94;60.91;96196.38;2101123;28;20749;-59
2023/05/21 08:03:01;;;;;;;18.13;12.05;;;;;;;21.89;59.51;96190.66;2101038;28;20245;-58
2023/05/21 08:04:05;;;;;;;19.40;12.38;;;;;;;21.45;61.26;96190.47;2098921;28;20246;-59
2023/05/21 08:05:07;;;;;;;18.92;12.10;;;;;;;21.47;62.81;96188.47;2089526;28;20196;-58
2023/05/21 08:06:12;;;;;;;20.67;11.98;;;;;;;21.88;61.88;96189.00;2092522;28;20600;-58
2023/05/21 08:07:15;;;;;;;24.00;13.23;;;;;;;22.22;61.99;96185.66;2100704;28;20666;-58
2023/05/21 08:08:18;;;;;;;23.55;13.02;;;;;;;22.12;62.73;96192.88;2100285;28;20223;-58
2023/05/21 08:09:19;;;;;;;18.92;11.52;;;;;;;22.27;61.41;96193.16;2099811;28;20529;-58
2023/05/21 08:10:21;;;;;;;20.48;12.57;;;;;;;22.63;60.95;96188.69;2101087;28;20199;-58
2023/05/21 08:11:23;;;;;;;20.23;10.82;;;;;;;22.80;59.45;96188.78;2101234;28;20208;-57
2023/05/21 08:12:24;;;;;;;17.95;12.80;;;;;;;21.62;60.29;96196.84;2099807;28;20211;-57
2023/05/21 08:13:26;;;;;;;16.92;11.75;;;;;;;21.77;61.41;96182.06;2099529;28;20244;-57
2023/05/21 08:14:27;;;;;;;18.70;12.45;;;;;;;21.97;62.13;96188.06;2096688;28;20200;-58
2023/05/21 08:15:28;;;;;;;21.95;12.45;;;;;;;21.45;62.36;96188.63;2099508;28;20226;-57
2023/05/21 08:16:30;;;;;;;16.77;12.50;;;;;;;22.16;61.28;96192.41;2098134;28;20204;-58
2023/05/21 08:17:32;;;;;;;17.58;12.82;;;;;;;21.93;60.90;96189.38;2096303;28;20253;-58
2023/05/21 08:18:33;;;;;;;19.77;12.60;;;;;;;21.66;60.70;96190.22;2096239;28;20245;-58
2023/05/21 08:19:35;;;;;;;18.38;12.13;;;;;;;22.05;60.50;96189.97;2100090;28;20199;-57
2023/05/21 08:20:36;;;;;;;17.88;11.55;;;;;;;21.78;58.91;96164.31;2089412;28;20314;-56
2023/05/21 08:21:38;;;;;;;16.27;11.77;;;;;;;22.27;59.76;96188.72;2092754;28;20276;-57
2023/05/21 08:22:40;;;;;;;16.88;11.90;;;;;;;22.56;59.40;96187.63;2098670;28;20196;-57
2023/05/21 08:23:42;;;;;;;16.63;11.15;;;;;;;22.11;59.90;96188.56;2099644;28;20253;-57
2023/05/21 08:24:44;;;;;;;19.83;12.20;;;;;;;22.00;59.93;96182.47;2096377;28;20233;-57
2023/05/21 08:25:45;;;;;;;19.10;12.20;;;;;;;22.35;59.62;96182.63;2097211;28;20192;-57
2023/05/21 08:26:48;;;;;;;18.92;12.45;;;;;;;22.60;59.57;96180.16;2100065;28;20199;-57
2023/05/21 08:27:49;;;;;;;17.75;11.30;;;;;;;22.93;59.38;96185.72;2099553;28;20249;-57
2023/05/21 08:28:53;;;;;;;15.45;10.65;;;;;;;23.15;59.68;96176.41;2087917;28;20220;-56
2023/05/21 08:29:54;;;;;;;23.60;11.65;;;;;;;23.43;58.76;96190.34;2091127;28;20218;-57
2023/05/21 08:30:55;;;;;;;15.93;10.88;;;;;;;23.66;58.36;96192.44;2101875;28;20199;-57
2023/05/21 08:31:57;;;;;;;16.50;11.90;;;;;;;23.82;57.44;96189.00;2090295;28;20197;-57
2023/05/21 08:32:59;;;;;;;28.83;12.75;;;;;;;23.19;57.64;96180.41;2091889;28;20200;-57
2023/05/21 08:34:01;;;;;;;17.65;11.35;;;;;;;23.52;58.04;96193.88;2100071;28;20231;-57
2023/05/21 08:35:03;;;;;;;19.25;13.07;;;;;;;23.15;58.79;96193.19;2096539;28;20195;-57
2023/05/21 08:36:05;;;;;;;20.23;11.45;;;;;;;23.41;58.22;96196.81;2097608;28;20196;-57
2023/05/21 08:37:07;;;;;;;17.00;12.15;;;;;;;23.66;58.56;96187.09;2101292;28;20191;-58
2023/05/21 08:38:08;;;;;;;17.65;11.70;;;;;;;23.80;57.71;96190.97;2099791;28;20200;-58
2023/05/21 08:39:11;;;;;;;17.60;12.25;;;;;;;23.33;58.18;96192.28;2099104;28;20232;-60
2023/05/21 08:40:13;;;;;;;14.10;11.57;;;;;;;23.63;59.02;96196.25;2096715;28;20584;-60
2023/05/21 08:41:15;;;;;;;20.60;12.35;;;;;;;23.69;59.01;96199.25;2100959;28;20282;-60
2023/05/21 08:42:33;;;;;;;14.38;12.35;;;;;;;23.45;58.52;96198.16;2101264;28;20199;-60
2023/05/21 08:43:38;;;;;;;16.15;12.38;;;;;;;23.31;60.06;96196.94;2100279;28;20203;-60
2023/05/21 08:44:45;;;;;;;15.80;11.43;;;;;;;23.47;59.58;96193.53;2100024;28;20195;-58
2023/05/21 08:45:56;;;;;;;17.90;12.52;;;;;;;23.23;59.49;96195.06;2100393;28;20655;-59
2023/05/21 08:46:59;;;;;;;17.40;11.50;;;;;;;23.20;59.15;96195.41;2090034;28;20608;-59
2023/05/21 08:48:01;;;;;;;21.20;12.15;;;;;;;22.93;61.12;96196.38;2090241;28;20283;-59
2023/05/21 08:49:03;;;;;;;17.55;11.60;;;;;;;22.15;61.40;96190.75;2098520;28;20231;-58
2023/05/21 08:50:08;;;;;;;17.00;12.55;;;;;;;22.38;61.92;96181.50;2099669;28;20305;-59
2023/05/21 08:51:10;;;;;;;18.30;12.52;;;;;;;22.70;62.28;96193.38;2109107;28;20627;-59
2023/05/21 08:52:12;;;;;;;18.95;12.90;;;;;;;22.57;61.53;96186.63;2099983;28;20315;-60
2023/05/21 08:53:14;;;;;;;17.70;11.88;;;;;;;22.57;61.39;96191.13;2093578;28;20204;-60
2023/05/21 08:54:28;;;;;;;19.15;11.70;;;;;;;22.45;62.91;96194.03;2100537;28;20672;-59
2023/05/21 08:55:31;;;;;;;16.80;11.48;;;;;;;22.46;61.92;96194.84;2100227;28;20200;-59
2023/05/21 08:56:34;;;;;;;16.70;11.27;;;;;;;22.59;63.38;96197.97;2099581;28;20234;-60
2023/05/21 08:57:36;;;;;;;26.25;20.92;;;;;;;22.72;60.29;96191.41;2100532;28;20563;-61
2023/05/21 08:58:41;;;;;;;105.72;74.43;;;;;;;22.68;60.49;96196.22;2095775;28;20199;-62
2023/05/21 08:59:43;;;;;;;119.53;84.95;;;;;;;22.76;60.99;96200.75;2099645;28;20206;-60
2023/05/21 09:00:45;;;;;;;69.35;53.00;;;;;;;22.77;60.97;96205.09;2099828;28;20202;-62
2023/05/21 09:01:48;;;;;;;21.88;17.13;;;;;;;22.60;61.32;96202.31;2091783;28;20207;-62
2023/05/21 09:02:53;;;;;;;14.88;10.80;;;;;;;22.58;60.42;96203.44;2092555;28;20192;-62
2023/05/21 09:03:56;;;;;;;15.05;11.45;;;;;;;22.54;59.77;96196.75;2095746;28;20258;-62
2023/05/21 09:05:14;;;;;;;15.95;9.80;;;;;;;22.25;60.16;96201.31;2099683;28;20200;-62
2023/05/21 09:06:16;;;;;;;17.88;11.35;;;;;;;22.23;60.66;96205.09;2096383;28;20207;-62
2023/05/21 09:07:17;;;;;;;15.45;10.25;;;;;;;22.28;60.90;96203.69;2097710;28;20286;-62
2023/05/21 09:08:34;;;;;;;15.65;11.57;;;;;;;22.33;59.85;96200.53;2100791;28;20201;-62
2023/05/21 09:09:44;;;;;;;16.25;11.27;;;;;;;22.25;59.68;96205.81;2099891;28;20215;-62
2023/05/21 09:10:49;;;;;;;14.45;11.63;;;;;;;21.95;61.58;96206.00;2099544;28;20225;-62
2023/05/21 09:11:50;;;;;;;16.10;10.48;;;;;;;22.25;60.54;96206.63;2091705;28;20549;-62
2023/05/21 09:12:52;;;;;;;19.25;10.05;;;;;;;22.28;60.31;96198.34;2090650;28;20599;-62
2023/05/21 09:13:55;;;;;;;16.45;10.73;;;;;;;22.18;59.96;96205.56;2099785;28;20219;-62
2023/05/21 09:14:57;;;;;;;15.65;11.32;;;;;;;22.19;61.23;96204.56;2099327;28;20199;-62
2023/05/21 09:15:59;;;;;;;19.90;11.55;;;;;;;22.17;61.14;96199.41;2096336;28;20733;-61
2023/05/21 09:17:00;;;;;;;16.30;10.63;;;;;;;22.10;61.10;96208.16;2099922;28;20215;-62
2023/05/21 09:18:02;;;;;;;16.05;11.82;;;;;;;22.10;61.21;96208.16;2099801;28;20943;-62
2023/05/21 09:19:03;;;;;;;18.25;11.98;;;;;;;22.15;60.53;96200.53;2100519;28;20602;-61
2023/05/21 09:20:15;;;;;;;14.73;10.57;;;;;;;22.38;60.57;96200.13;2099830;28;20246;-62
2023/05/21 09:21:25;;;;;;;15.30;10.40;;;;;;;22.25;62.07;96196.00;2099537;28;20248;-61
2023/05/21 09:22:26;;;;;;;16.63;10.07;;;;;;;22.32;60.03;96207.69;2099366;28;20195;-61
2023/05/21 09:23:28;;;;;;;14.20;11.10;;;;;;;22.46;59.78;96206.34;2098651;28;20725;-62
2023/05/21 09:24:31;;;;;;;15.63;10.60;;;;;;;22.21;60.75;96207.06;2099539;28;20200;-61
2023/05/21 09:25:37;;;;;;;16.80;10.73;;;;;;;22.21;60.80;96204.41;2093766;28;20208;-61
2023/05/21 09:26:41;;;;;;;15.88;10.30;;;;;;;22.05;60.08;96200.59;2091457;28;20723;-62
2023/05/21 09:27:43;;;;;;;21.58;10.30;;;;;;;22.18;59.61;96202.88;2099828;28;20206;-61
2023/05/21 09:28:44;;;;;;;12.63;10.45;;;;;;;22.32;60.22;96204.19;2099116;28;20222;-61
2023/05/21 09:29:46;;;;;;;17.77;10.30;;;;;;;22.39;58.83;96207.94;2099165;28;20207;-62
2023/05/21 09:30:52;;;;;;;14.80;9.57;;;;;;;22.22;59.91;96206.94;2099675;28;20706;-62
2023/05/21 09:31:53;;;;;;;14.98;10.43;;;;;;;22.35;59.69;96202.06;2100136;28;20230;-61
2023/05/21 09:32:57;;;;;;;14.25;10.60;;;;;;;22.56;58.72;96208.91;2100172;28;20204;-61
2023/05/21 09:33:59;;;;;;;16.73;9.27;;;;;;;22.37;58.86;96212.56;2097016;28;20858;-61
2023/05/21 09:35:08;;;;;;;15.35;9.70;;;;;;;22.50;58.62;96207.72;2091405;28;20294;-61
2023/05/21 09:36:10;;;;;;;19.35;9.85;;;;;;;22.62;58.89;96202.16;2101034;28;20207;-61
2023/05/21 09:37:12;;;;;;;13.77;9.45;;;;;;;22.66;58.54;96201.69;2107355;28;20206;-61
2023/05/21 09:38:28;;;;;;;12.70;9.77;;;;;;;22.60;58.50;96174.84;2099760;28;20639;-61
2023/05/21 09:39:29;;;;;;;11.73;9.40;;;;;;;22.83;57.55;96201.81;2098124;28;20203;-61
2023/05/21 09:40:33;;;;;;;13.65;9.90;;;;;;;22.63;57.67;96204.63;2100028;28;20227;-61
2023/05/21 09:41:36;;;;;;;16.85;9.27;;;;;;;22.46;58.33;96206.34;2099967;28;20200;-61
2023/05/21 09:42:39;;;;;;;12.48;10.15;;;;;;;22.29;57.78;96207.97;2090696;28;20239;-60
2023/05/21 09:43:42;;;;;;;15.02;10.20;;;;;;;22.43;58.55;96200.50;2090859;28;20196;-61
2023/05/21 09:44:44;;;;;;;15.35;9.75;;;;;;;22.73;57.02;96201.91;2100066;28;20195;-60
2023/05/21 09:45:53;;;;;;;13.88;9.73;;;;;;;22.69;57.19;96207.69;2099634;28;20211;-60
2023/05/21 09:46:58;;;;;;;13.55;10.55;;;;;;;22.73;57.36;96207.22;2099990;28;20196;-61
2023/05/21 09:48:00;;;;;;;14.70;9.40;;;;;;;22.82;56.87;96200.13;2099753;28;20203;-62
2023/05/21 09:49:01;;;;;;;12.82;10.20;;;;;;;22.64;57.70;96203.66;2098045;28;20231;-61
2023/05/21 09:50:03;;;;;;;12.85;9.75;;;;;;;22.80;59.00;96208.28;2100199;28;20673;-60
2023/05/21 09:51:10;;;;;;;12.80;9.43;;;;;;;22.71;58.20;96211.84;2099470;28;20191;-61
2023/05/21 09:52:11;;;;;;;15.88;10.20;;;;;;;22.98;58.81;96210.03;2099673;28;20362;-60
2023/05/21 09:53:13;;;;;;;16.35;10.80;;;;;;;22.96;59.26;96204.88;2098147;28;20192;-61
2023/05/21 09:54:14;;;;;;;14.63;10.18;;;;;;;23.02;58.44;96207.91;2098696;28;20601;-60
2023/05/21 09:55:16;;;;;;;13.27;9.80;;;;;;;22.58;57.79;96212.25;2095964;28;20196;-60
2023/05/21 09:56:25;;;;;;;15.18;10.40;;;;;;;22.81;58.66;96209.94;2096747;28;20199;-60
2023/05/21 09:57:28;;;;;;;11.68;9.40;;;;;;;22.81;58.96;96209.09;2098657;28;20777;-60
2023/05/21 09:58:30;;;;;;;14.38;9.95;;;;;;;22.88;57.51;96212.81;2097634;28;20256;-60
2023/05/21 09:59:38;;;;;;;15.75;10.45;;;;;;;22.99;57.78;96203.72;2101615;28;20195;-60
2023/05/21 10:00:39;;;;;;;13.90;9.90;;;;;;;23.38;57.57;96213.13;2099536;28;20206;-60
2023/05/21 10:01:42;;;;;;;17.55;10.77;;;;;;;23.23;58.13;96207.56;2099479;28;20210;-61
2023/05/21 10:02:46;;;;;;;12.88;10.02;;;;;;;23.43;57.40;96205.50;2099272;28;20196;-60
2023/05/21 10:03:58;;;;;;;13.65;10.60;;;;;;;23.55;57.14;96216.69;2106984;28;20367;-60
2023/05/21 10:05:00;;;;;;;14.95;10.27;;;;;;;23.78;57.00;96217.78;2105456;28;20202;-60
2023/05/21 10:06:02;;;;;;;16.65;9.95;;;;;;;23.78;56.16;96215.13;2100257;28;20199;-60
2023/05/21 10:07:03;;;;;;;15.90;10.82;;;;;;;24.13;55.78;96215.06;2100636;28;20670;-60
2023/05/21 10:08:08;;;;;;;17.30;10.23;;;;;;;23.68;55.27;96209.09;2101404;28;20741;-60
2023/05/21 10:09:10;;;;;;;15.77;10.15;;;;;;;23.91;56.24;96219.16;2099591;28;20247;-60
2023/05/21 10:10:13;;;;;;;14.30;10.40;;;;;;;24.10;56.51;96216.25;2099996;28;20196;-60
2023/05/21 10:11:16;;;;;;;12.80;9.95;;;;;;;24.52;56.18;96217.13;2099661;28;20211;-60
2023/05/21 10:12:18;;;;;;;13.98;10.45;;;;;;;24.63;55.95;96218.59;2100518;28;20834;-60
2023/05/21 10:13:22;;;;;;;13.23;10.25;;;;;;;24.76;54.89;96218.16;2099154;28;20328;-60
2023/05/21 10:14:28;;;;;;;13.05;8.98;;;;;;;24.84;54.89;96202.13;2099720;28;20390;-58
2023/05/21 10:15:33;;;;;;;89.78;59.15;;;;;;;25.14;54.00;96210.44;2095286;28;20231;-61
2023/05/21 10:16:36;;;;;;;62.85;40.85;;;;;;;24.80;53.17;96208.81;2097855;28;20248;-59
2023/05/21 10:17:39;;;;;;;58.90;43.58;;;;;;;25.04;53.81;96209.75;2093089;28;20212;-59
2023/05/21 10:18:41;;;;;;;47.40;32.30;;;;;;;24.92;54.18;96203.94;2091292;28;20199;-60
2023/05/21 10:19:45;;;;;;;15.77;12.27;;;;;;;24.87;53.69;96207.09;2098533;28;20199;-59
2023/05/21 10:20:47;;;;;;;14.50;10.85;;;;;;;24.93;53.71;96209.09;2099357;28;20233;-59
2023/05/21 10:21:53;;;;;;;13.88;10.43;;;;;;;25.25;51.75;96215.41;2099246;28;20211;-59
2023/05/21 10:22:55;;;;;;;14.00;9.65;;;;;;;24.96;53.47;96210.59;2097528;28;20248;-61
2023/05/21 10:23:57;;;;;;;13.52;10.40;;;;;;;24.84;53.44;96206.63;2095035;28;20223;-61
2023/05/21 10:25:02;;;;;;;14.35;10.75;;;;;;;24.54;55.18;96203.59;2098350;28;20207;-60
2023/05/21 10:26:05;;;;;;;19.73;12.02;;;;;;;25.00;54.10;96203.94;2108186;28;20202;-61
2023/05/21 10:27:08;;;;;;;20.08;12.38;;;;;;;25.22;53.56;96201.56;2108851;28;20229;-63
2023/05/21 10:28:12;;;;;;;17.15;11.98;;;;;;;25.19;52.58;96200.06;2095865;28;20196;-61
2023/05/21 10:29:15;;;;;;;16.10;11.65;;;;;;;25.10;53.09;96204.59;2095582;28;20288;-61
2023/05/21 10:30:20;;;;;;;17.30;10.63;;;;;;;25.12;54.42;96209.75;2090760;28;20282;-59
2023/05/21 10:31:23;;;;;;;13.95;10.45;;;;;;;25.41;54.27;96203.84;2091074;28;20195;-59
2023/05/21 10:32:26;;;;;;;17.23;10.15;;;;;;;25.41;53.67;96193.16;2099850;28;20199;-60
2023/05/21 10:33:28;;;;;;;12.82;10.23;;;;;;;25.40;53.88;96196.00;2099799;28;20253;-62
2023/05/21 10:34:30;;;;;;;16.48;10.52;;;;;;;25.65;54.90;96203.91;2099890;28;20678;-59
2023/05/21 10:35:33;;;;;;;19.60;10.85;;;;;;;25.95;54.49;96204.94;2098595;28;20794;-60
2023/05/21 10:36:36;;;;;;;12.90;9.95;;;;;;;26.10;53.24;96191.69;2099477;28;20595;-60
2023/05/21 10:37:38;;;;;;;13.40;10.13;;;;;;;26.28;53.46;96201.28;2100501;28;20260;-60
2023/05/21 10:38:42;;;;;;;14.73;10.90;;;;;;;26.49;51.80;96196.09;2098976;28;20644;-60
2023/05/21 10:39:48;;;;;;;12.70;10.15;;;;;;;26.61;51.01;96190.31;2098576;28;20244;-60
2023/05/21 10:40:51;;;;;;;15.43;10.93;;;;;;;26.65;51.54;96200.47;2099362;28;20206;-60
2023/05/21 10:42:10;;;;;;;14.98;10.98;;;;;;;26.44;51.82;96203.00;2100068;28;20227;-60
2023/05/21 10:43:29;;;;;;;12.95;10.43;;;;;;;26.35;53.41;96200.38;2099700;28;20199;-60
2023/05/21 10:44:44;;;;;;;16.75;11.82;;;;;;;26.56;51.78;96199.72;2099498;28;20218;-60
2023/05/21 10:45:58;;;;;;;14.32;10.25;;;;;;;26.77;51.83;96200.91;2099853;28;20620;-60
2023/05/21 10:48:02;;;;;;;15.30;11.15;;;;;;;26.47;50.68;96200.78;2097436;28;20195;-60
2023/05/21 10:49:14;;;;;;;14.00;10.40;;;;;;;26.84;51.16;96201.00;2062199;28;20226;-60
2023/05/21 10:50:21;;;;;;;12.13;10.05;;;;;;;26.90;50.73;96202.97;2082900;28;20197;-59
2023/05/21 10:51:27;;;;;;;15.65;9.85;;;;;;;26.53;51.97;96205.41;2099149;28;20267;-59
2023/05/21 10:52:47;;;;;;;12.65;9.25;;;;;;;27.05;51.52;96200.31;2099162;28;20207;-60